Time;durP1;ratioP1;P1;durP2;ratioP2;P2;SDS_P1;SDS_P2;PMS_P1;PMS_P2;Temp;Humidity;BMP_temperature;BMP_pressure;BME280_temperature;BME280_humidity;BME280_pressure;Samples;Min_cycle;Max_cycle;Signal;HPM_P1;HPM_P2
2023/06/01 00:03:26;;;;;;;11.38;4.88;;;;;;;;;;10403979;28;20096;-81
2023/06/01 00:08:33;;;;;;;10.77;4.15;;;;;;;;;;10417828;28;20068;-79
2023/06/01 00:13:40;;;;;;;12.38;4.78;;;;;;;;;;10416523;28;20064;-77
2023/06/01 00:18:55;;;;;;;9.88;4.40;;;;;;;;;;10400295;28;20037;-78
2023/06/01 00:24:11;;;;;;;9.55;4.15;;;;;;;;;;10414709;28;20038;-78
2023/06/01 00:29:26;;;;;;;9.02;4.25;;;;;;;;;;10400459;28;20046;-78
2023/06/01 00:34:53;;;;;;;10.68;4.88;;;;;;;;;;10416479;28;20115;-78
2023/06/01 00:40:17;;;;;;;10.30;4.38;;;;;;;;;;10397586;28;20068;-77
2023/06/01 00:45:25;;;;;;;9.55;4.45;;;;;;;;;;10411971;28;20034;-78
2023/06/01 00:50:31;;;;;;;9.23;4.22;;;;;;;;;;10416238;28;20049;-78
2023/06/01 00:55:45;;;;;;;9.45;4.57;;;;;;;;;;10400013;28;20037;-79
2023/06/01 01:00:53;;;;;;;10.52;4.43;;;;;;;;;;10399563;28;20073;-78
2023/06/01 01:11:36;;;;;;;10.88;4.55;;;;;;;;;;10412198;28;20341;-77
2023/06/01 01:16:48;;;;;;;12.02;4.40;;;;;;;;;;10412118;28;20053;-78
2023/06/01 01:22:09;;;;;;;9.48;4.63;;;;;;;;;;10394206;28;20055;-78
2023/06/01 01:27:18;;;;;;;10.18;4.97;;;;;;;;;;10408715;28;20113;-79
2023/06/01 01:32:38;;;;;;;12.35;4.85;;;;;;;;;;10416154;28;20073;-79
2023/06/01 01:37:52;;;;;;;6.82;4.25;;;;;;;;;;10413652;28;20068;-78
2023/06/01 01:42:59;;;;;;;10.13;4.80;;;;;;;;;;10417431;28;20104;-78
2023/06/01 01:48:12;;;;;;;12.25;5.15;;;;;;;;;;10396318;28;20042;-77
2023/06/01 01:53:27;;;;;;;;;;;;;;;;;;10418008;28;20113;-78
2023/06/01 01:58:46;;;;;;;11.80;5.25;;;;;;;;;;10383302;28;19972;-78
2023/06/01 02:04:01;;;;;;;14.70;4.75;;;;;;;;;;10395881;28;20072;-77
2023/06/01 02:09:08;;;;;;;11.52;5.00;;;;;;;;;;10410434;28;20122;-78
2023/06/01 02:14:15;;;;;;;13.43;5.78;;;;;;;;;;10409387;28;20049;-77
2023/06/01 02:19:37;;;;;;;8.98;4.80;;;;;;;;;;10412179;28;20107;-77
2023/06/01 02:24:55;;;;;;;12.30;5.22;;;;;;;;;;10413544;28;20068;-77
2023/06/01 02:30:14;;;;;;;10.20;5.13;;;;;;;;;;10410156;28;20057;-78
2023/06/01 02:35:25;;;;;;;9.90;5.28;;;;;;;;;;10416362;28;20042;-77
2023/06/01 02:40:36;;;;;;;10.95;5.30;;;;;;;;;;10393350;28;20045;-77
2023/06/01 02:45:41;;;;;;;12.52;4.95;;;;;;;;;;10420215;28;20102;-77
2023/06/01 02:50:48;;;;;;;11.63;5.22;;;;;;;;;;10415641;28;20058;-79
2023/06/01 02:56:05;;;;;;;10.20;5.13;;;;;;;;;;10375695;28;20084;-78
2023/06/01 03:01:12;;;;;;;10.35;4.85;;;;;;;;;;10393124;28;20113;-77
2023/06/01 03:06:32;;;;;;;9.63;4.72;;;;;;;;;;10413269;28;20030;-76
2023/06/01 03:11:49;;;;;;;9.85;5.03;;;;;;;;;;10417782;28;20039;-78
2023/06/01 03:16:55;;;;;;;9.73;4.88;;;;;;;;;;10423773;28;20064;-78
2023/06/01 03:22:06;;;;;;;11.75;5.78;;;;;;;;;;10394867;28;20038;-77
2023/06/01 03:27:17;;;;;;;9.75;5.20;;;;;;;;;;10388820;28;20041;-79
2023/06/01 03:32:30;;;;;;;9.85;5.35;;;;;;;;;;10419153;28;20065;-79
2023/06/01 03:37:39;;;;;;;9.23;5.13;;;;;;;;;;10412198;28;20553;-78
2023/06/01 03:42:53;;;;;;;13.68;5.22;;;;;;;;;;10405929;28;20114;-78
2023/06/01 03:48:06;;;;;;;11.50;5.40;;;;;;;;;;10415592;28;20133;-78
2023/06/01 03:53:22;;;;;;;11.38;5.80;;;;;;;;;;10420053;28;20045;-78
2023/06/01 03:58:42;;;;;;;9.38;4.97;;;;;;;;;;10420397;28;20049;-78
2023/06/01 04:03:45;;;;;;;11.18;5.03;;;;;;;;;;10397499;28;20076;-76
2023/06/01 04:08:50;;;;;;;10.85;5.47;;;;;;;;;;10414332;28;20037;-79
2023/06/01 04:14:01;;;;;;;9.45;5.10;;;;;;;;;;10417521;28;20373;-78
2023/06/01 04:19:09;;;;;;;12.68;5.07;;;;;;;;;;10414999;28;20072;-78
2023/06/01 04:24:28;;;;;;;11.68;5.43;;;;;;;;;;10421362;28;20045;-78
2023/06/01 04:29:39;;;;;;;10.63;4.50;;;;;;;;;;10414973;28;20041;-79
2023/06/01 04:34:59;;;;;;;8.55;4.30;;;;;;;;;;10423796;28;20053;-79
2023/06/01 04:40:13;;;;;;;8.55;4.40;;;;;;;;;;10414884;28;20083;-77
2023/06/01 04:45:23;;;;;;;11.88;5.18;;;;;;;;;;10398812;28;20044;-76
2023/06/01 04:50:30;;;;;;;8.00;4.25;;;;;;;;;;10399264;28;20047;-77
2023/06/01 04:55:40;;;;;;;15.45;5.35;;;;;;;;;;10396134;28;20064;-77
2023/06/01 05:00:57;;;;;;;8.57;4.55;;;;;;;;;;10413609;28;20058;-78
2023/06/01 05:06:14;;;;;;;10.73;4.57;;;;;;;;;;10413678;28;20064;-79
2023/06/01 05:11:23;;;;;;;9.82;4.22;;;;;;;;;;10421610;28;20060;-77
2023/06/01 05:16:32;;;;;;;8.93;4.18;;;;;;;;;;10414244;28;20037;-77
2023/06/01 05:21:44;;;;;;;10.00;4.95;;;;;;;;;;10414038;28;20465;-80
2023/06/01 05:26:51;;;;;;;10.88;4.53;;;;;;;;;;10413839;28;20108;-77
2023/06/01 05:32:16;;;;;;;12.30;4.97;;;;;;;;;;10415224;28;20054;-77
2023/06/01 05:37:27;;;;;;;9.70;4.80;;;;;;;;;;10411120;28;20034;-78
2023/06/01 05:42:35;;;;;;;10.93;5.13;;;;;;;;;;10411778;28;20073;-76
2023/06/01 05:47:42;;;;;;;11.20;4.70;;;;;;;;;;10395777;28;20495;-77
2023/06/01 05:52:51;;;;;;;11.45;4.88;;;;;;;;;;10414625;28;20042;-79
2023/06/01 05:57:57;;;;;;;10.25;4.80;;;;;;;;;;10395711;28;20053;-79
2023/06/01 06:03:04;;;;;;;12.20;5.18;;;;;;;;;;10387599;28;20044;-77
2023/06/01 06:08:17;;;;;;;9.70;5.30;;;;;;;;;;10404709;28;20149;-79
2023/06/01 06:13:21;;;;;;;10.98;5.15;;;;;;;;;;10367019;28;20053;-79
2023/06/01 06:18:34;;;;;;;10.70;4.90;;;;;;;;;;10407758;28;20738;-78
2023/06/01 06:23:58;;;;;;;11.00;4.65;;;;;;;;;;10403235;28;20073;-79
2023/06/01 06:29:12;;;;;;;9.52;4.80;;;;;;;;;;10390067;28;20052;-78
2023/06/01 06:34:33;;;;;;;10.93;4.70;;;;;;;;;;10393072;28;20264;-78
2023/06/01 06:39:40;;;;;;;10.75;4.63;;;;;;;;;;10395641;28;20050;-79
2023/06/01 06:44:51;;;;;;;9.60;4.43;;;;;;;;;;10399462;28;20037;-78
2023/06/01 06:50:11;;;;;;;10.52;4.70;;;;;;;;;;10395408;28;20041;-78
2023/06/01 06:55:22;;;;;;;9.90;4.13;;;;;;;;;;10406097;28;20114;-76
2023/06/01 07:00:28;;;;;;;13.70;4.75;;;;;;;;;;10416549;28;20050;-79
2023/06/01 07:05:36;;;;;;;11.77;5.50;;;;;;;;;;10416581;28;20049;-80
2023/06/01 07:16:13;;;;;;;13.85;4.95;;;;;;;;;;10398352;28;20076;-78
2023/06/01 07:21:18;;;;;;;12.25;4.90;;;;;;;;;;10429731;28;20045;-78
2023/06/01 07:26:43;;;;;;;11.70;4.88;;;;;;;;;;10397419;28;20560;-78
2023/06/01 07:31:50;;;;;;;12.13;5.18;;;;;;;;;;10420322;28;20407;-79
2023/06/01 07:36:58;;;;;;;11.63;5.65;;;;;;;;;;10413392;28;20042;-78
2023/06/01 07:47:46;;;;;;;13.13;4.75;;;;;;;;;;10407491;28;20065;-79
2023/06/01 07:52:59;;;;;;;9.63;4.70;;;;;;;;;;10417835;28;20132;-78
2023/06/01 07:58:08;;;;;;;10.90;5.53;;;;;;;;;;10372623;28;20797;-78
2023/06/01 08:03:20;;;;;;;10.30;5.28;;;;;;;;;;10410069;28;20323;-79
2023/06/01 08:08:29;;;;;;;8.95;5.28;;;;;;;;;;10409054;28;20441;-78
2023/06/01 08:13:41;;;;;;;9.25;5.53;;;;;;;;;;10411944;28;20053;-79
2023/06/01 08:18:44;;;;;;;8.52;5.28;;;;;;;;;;10411845;28;20091;-79
2023/06/01 08:24:04;;;;;;;9.65;5.50;;;;;;;;;;10408891;28;20080;-79
2023/06/01 08:29:14;;;;;;;7.63;5.95;;;;;;;;;;10384894;28;20106;-79
2023/06/01 08:34:46;;;;;;;13.45;5.95;;;;;;;;;;10409768;28;20080;-79
2023/06/01 08:39:51;;;;;;;12.68;5.90;;;;;;;;;;10391769;28;20076;-79
2023/06/01 08:45:12;;;;;;;8.60;5.32;;;;;;;;;;10414465;28;20045;-79
2023/06/01 08:50:19;;;;;;;10.25;5.70;;;;;;;;;;10391261;28;20054;-79
2023/06/01 08:55:24;;;;;;;6.95;5.18;;;;;;;;;;10412633;28;20069;-80
2023/06/01 09:00:32;;;;;;;9.75;5.30;;;;;;;;;;10374691;28;20049;-80
2023/06/01 09:05:48;;;;;;;5.60;5.00;;;;;;;;;;10408603;28;20037;-79
2023/06/01 09:10:55;;;;;;;7.43;4.90;;;;;;;;;;10412575;28;20468;-79
2023/06/01 09:16:02;;;;;;;9.95;5.90;;;;;;;;;;10421101;28;20056;-78
2023/06/01 09:21:23;;;;;;;9.98;5.88;;;;;;;;;;10424309;28;20038;-80
2023/06/01 09:26:29;;;;;;;8.38;6.03;;;;;;;;;;10420828;28;20076;-80
2023/06/01 09:31:54;;;;;;;7.68;5.70;;;;;;;;;;10391539;28;20061;-80
2023/06/01 09:37:18;;;;;;;8.25;5.72;;;;;;;;;;10408415;28;20477;-79
2023/06/01 09:42:37;;;;;;;7.20;5.78;;;;;;;;;;10407281;28;20053;-80
2023/06/01 09:47:47;;;;;;;12.23;5.57;;;;;;;;;;10389646;28;20076;-80
2023/06/01 09:53:09;;;;;;;7.03;5.68;;;;;;;;;;10396154;28;20061;-80
2023/06/01 09:58:39;;;;;;;9.48;5.78;;;;;;;;;;10399342;28;20072;-80
2023/06/01 10:03:53;;;;;;;9.07;5.57;;;;;;;;;;10419862;28;20069;-78
2023/06/01 10:09:01;;;;;;;6.57;4.97;;;;;;;;;;10411590;28;20129;-79
2023/06/01 10:14:08;;;;;;;8.48;5.60;;;;;;;;;;10420743;28;20068;-79
2023/06/01 10:19:31;;;;;;;8.65;5.47;;;;;;;;;;10396895;28;20052;-80
2023/06/01 10:24:41;;;;;;;8.90;5.32;;;;;;;;;;10423296;28;20041;-78
2023/06/01 10:29:52;;;;;;;9.00;5.88;;;;;;;;;;10396717;28;20059;-80
2023/06/01 10:35:12;;;;;;;7.70;5.72;;;;;;;;;;10421702;28;20033;-79
2023/06/01 10:40:26;;;;;;;6.57;5.40;;;;;;;;;;10414564;28;20046;-79
2023/06/01 10:45:40;;;;;;;7.68;5.70;;;;;;;;;;10397202;28;20038;-79
2023/06/01 10:51:17;;;;;;;8.48;5.80;;;;;;;;;;10398350;28;20046;-80
2023/06/01 10:56:23;;;;;;;12.02;5.70;;;;;;;;;;10409778;28;20085;-79
2023/06/01 11:01:40;;;;;;;6.60;5.20;;;;;;;;;;10390166;28;20099;-80
2023/06/01 11:06:48;;;;;;;8.38;5.18;;;;;;;;;;10402368;28;20087;-80
2023/06/01 11:12:00;;;;;;;7.95;5.50;;;;;;;;;;10403259;28;20147;-80
2023/06/01 11:17:28;;;;;;;7.65;5.85;;;;;;;;;;10390408;28;20051;-80
2023/06/01 11:22:37;;;;;;;7.80;5.68;;;;;;;;;;10403642;28;20160;-79
2023/06/01 11:27:47;;;;;;;6.72;5.45;;;;;;;;;;10403666;28;20036;-80
2023/06/01 11:32:55;;;;;;;7.47;5.20;;;;;;;;;;10407240;28;20143;-79
2023/06/01 11:38:04;;;;;;;9.00;5.10;;;;;;;;;;10393823;28;20046;-79
2023/06/01 11:43:09;;;;;;;7.07;5.40;;;;;;;;;;10403390;28;20145;-79
2023/06/01 11:48:35;;;;;;;6.68;4.95;;;;;;;;;;10374477;28;20041;-80
2023/06/01 11:53:58;;;;;;;11.05;5.05;;;;;;;;;;10417146;28;20057;-79
2023/06/01 11:59:15;;;;;;;7.22;4.70;;;;;;;;;;10387886;28;20050;-78
2023/06/01 12:04:21;;;;;;;7.20;4.55;;;;;;;;;;10398074;28;20516;-78
2023/06/01 12:09:39;;;;;;;6.50;4.85;;;;;;;;;;10400741;28;20053;-78
2023/06/01 12:15:02;;;;;;;8.95;5.07;;;;;;;;;;10408396;28;20067;-78
2023/06/01 12:20:12;;;;;;;8.32;4.60;;;;;;;;;;10410732;28;20081;-77
2023/06/01 12:25:22;;;;;;;6.55;4.47;;;;;;;;;;10393541;28;20587;-78
2023/06/01 12:30:30;;;;;;;7.28;4.53;;;;;;;;;;10371586;28;20136;-78
2023/06/01 12:35:36;;;;;;;9.13;4.47;;;;;;;;;;10415591;28;20097;-79
2023/06/01 12:41:07;;;;;;;6.30;4.57;;;;;;;;;;10410946;28;20065;-79
2023/06/01 12:46:19;;;;;;;7.30;4.35;;;;;;;;;;10407312;28;20045;-79
2023/06/01 12:51:46;;;;;;;8.85;4.93;;;;;;;;;;10412101;28;20140;-78
2023/06/01 12:57:01;;;;;;;7.75;4.63;;;;;;;;;;10406074;28;20566;-78
2023/06/01 13:02:13;;;;;;;7.13;4.40;;;;;;;;;;10409213;28;20130;-78
2023/06/01 13:07:22;;;;;;;10.48;4.80;;;;;;;;;;10409546;28;20045;-78
2023/06/01 13:12:35;;;;;;;6.75;4.40;;;;;;;;;;10387328;28;20060;-78
2023/06/01 13:17:47;;;;;;;8.43;4.40;;;;;;;;;;10408585;28;20050;-78
2023/06/01 13:22:55;;;;;;;8.20;4.18;;;;;;;;;;10405405;28;20784;-77
2023/06/01 13:33:20;;;;;;;8.65;4.40;;;;;;;;;;10400690;28;20528;-79
2023/06/01 13:38:26;;;;;;;9.05;4.43;;;;;;;;;;10390858;28;20487;-79
2023/06/01 13:43:37;;;;;;;10.13;3.67;;;;;;;;;;10408402;28;20430;-79
2023/06/01 13:48:47;;;;;;;7.85;4.13;;;;;;;;;;10408491;28;20393;-79
2023/06/01 13:53:55;;;;;;;7.07;4.18;;;;;;;;;;10391068;28;20101;-79
2023/06/01 13:59:25;;;;;;;6.78;4.05;;;;;;;;;;10389801;28;20042;-79
2023/06/01 14:04:35;;;;;;;9.55;4.22;;;;;;;;;;10403425;28;20049;-79
2023/06/01 14:09:46;;;;;;;11.93;4.75;;;;;;;;;;10413562;28;20070;-79
2023/06/01 14:14:56;;;;;;;8.15;4.47;;;;;;;;;;10396293;28;20164;-77
2023/06/01 14:20:00;;;;;;;5.88;4.18;;;;;;;;;;10397757;28;20068;-78
2023/06/01 14:25:13;;;;;;;7.43;4.10;;;;;;;;;;10416346;28;20060;-77
2023/06/01 14:30:18;;;;;;;9.38;4.07;;;;;;;;;;10403805;28;20038;-78
2023/06/01 14:35:34;;;;;;;7.32;3.85;;;;;;;;;;10406765;28;20115;-78
2023/06/01 14:40:48;;;;;;;10.70;4.25;;;;;;;;;;10386514;28;20050;-78
2023/06/01 14:46:02;;;;;;;7.47;4.10;;;;;;;;;;10377218;28;20037;-77
2023/06/01 14:51:26;;;;;;;9.85;5.10;;;;;;;;;;10401908;28;20046;-77
2023/06/01 14:56:34;;;;;;;10.43;6.63;;;;;;;;;;10397783;28;20072;-78
2023/06/01 15:01:48;;;;;;;7.97;4.00;;;;;;;;;;10385827;28;20069;-79
2023/06/01 15:06:54;;;;;;;7.97;3.85;;;;;;;;;;10411350;28;20071;-79
2023/06/01 15:12:00;;;;;;;15.07;8.68;;;;;;;;;;10409050;28;20439;-79
2023/06/01 15:17:13;;;;;;;8.38;4.55;;;;;;;;;;10411063;28;20049;-79
2023/06/01 15:22:20;;;;;;;6.97;3.70;;;;;;;;;;10409667;28;20099;-78
2023/06/01 15:27:44;;;;;;;12.50;5.80;;;;;;;;;;10411710;28;20081;-78
2023/06/01 15:32:51;;;;;;;7.28;3.58;;;;;;;;;;10408359;28;20053;-78
2023/06/01 15:38:18;;;;;;;7.18;3.85;;;;;;;;;;10416374;28;20046;-78
2023/06/01 15:43:25;;;;;;;7.28;4.20;;;;;;;;;;10389114;28;20109;-78
2023/06/01 15:48:39;;;;;;;8.18;4.15;;;;;;;;;;10411787;28;20080;-78
2023/06/01 15:53:52;;;;;;;9.90;4.95;;;;;;;;;;10410365;28;20899;-79
2023/06/01 15:58:58;;;;;;;6.93;3.80;;;;;;;;;;10400537;28;20096;-81
2023/06/01 16:04:10;;;;;;;7.38;3.88;;;;;;;;;;10412901;28;20058;-78
2023/06/01 16:09:20;;;;;;;6.72;3.80;;;;;;;;;;10390334;28;20100;-78
2023/06/01 16:14:28;;;;;;;7.97;4.38;;;;;;;;;;10392067;28;20505;-77
2023/06/01 16:19:42;;;;;;;6.88;3.88;;;;;;;;;;10411025;28;20053;-76
2023/06/01 16:24:48;;;;;;;9.88;4.57;;;;;;;;;;10416002;28;20046;-78
2023/06/01 16:29:57;;;;;;;7.55;3.50;;;;;;;;;;10409465;28;20124;-78
2023/06/01 16:35:07;;;;;;;6.78;3.70;;;;;;;;;;10420042;28;20049;-77
2023/06/01 16:40:17;;;;;;;6.63;3.75;;;;;;;;;;10416174;28;20038;-78
2023/06/01 16:45:21;;;;;;;21.25;10.48;;;;;;;;;;10416361;28;20049;-79
2023/06/01 16:50:28;;;;;;;9.75;3.92;;;;;;;;;;10415052;28;20053;-76
2023/06/01 16:55:38;;;;;;;8.13;3.47;;;;;;;;;;10415074;28;20053;-78
2023/06/01 17:00:43;;;;;;;8.02;3.55;;;;;;;;;;10399511;28;20042;-76
2023/06/01 17:05:58;;;;;;;11.10;6.45;;;;;;;;;;10397336;28;20087;-77
2023/06/01 17:11:11;;;;;;;10.65;4.00;;;;;;;;;;10410148;28;20116;-77
2023/06/01 17:16:18;;;;;;;5.28;3.33;;;;;;;;;;10413205;28;20059;-78
2023/06/01 17:21:25;;;;;;;6.75;3.50;;;;;;;;;;10415709;28;20143;-78
2023/06/01 17:26:29;;;;;;;7.78;3.35;;;;;;;;;;10399289;28;20109;-77
2023/06/01 17:31:43;;;;;;;10.57;3.70;;;;;;;;;;10418830;28;20038;-78
2023/06/01 17:36:51;;;;;;;9.57;3.65;;;;;;;;;;10413814;28;20116;-78
2023/06/01 17:47:31;;;;;;;6.13;3.53;;;;;;;;;;10418265;28;20104;-77
2023/06/01 17:52:43;;;;;;;6.13;3.88;;;;;;;;;;10410417;28;20041;-77
2023/06/01 17:57:49;;;;;;;8.60;4.00;;;;;;;;;;10414118;28;20400;-78
2023/06/01 18:02:54;;;;;;;6.13;3.33;;;;;;;;;;10376552;28;20468;-76
2023/06/01 18:08:14;;;;;;;5.82;3.70;;;;;;;;;;10400574;28;20061;-75
2023/06/01 18:13:31;;;;;;;6.35;3.33;;;;;;;;;;10416323;28;20057;-75
2023/06/01 18:18:44;;;;;;;6.30;3.50;;;;;;;;;;10413112;28;20437;-75
2023/06/01 18:23:53;;;;;;;8.23;3.85;;;;;;;;;;10413297;28;20054;-76
2023/06/01 18:29:05;;;;;;;9.10;4.00;;;;;;;;;;10414263;28;20038;-75
2023/06/01 18:34:09;;;;;;;7.53;3.85;;;;;;;;;;10403997;28;20140;-75
2023/06/01 18:39:21;;;;;;;8.75;3.90;;;;;;;;;;10418979;28;20049;-76
2023/06/01 18:44:29;;;;;;;7.38;4.43;;;;;;;;;;10408740;28;20052;-76
2023/06/01 18:49:43;;;;;;;8.50;4.30;;;;;;;;;;10405870;28;20041;-76
2023/06/01 18:54:52;;;;;;;9.98;4.63;;;;;;;;;;10424386;28;20064;-78
2023/06/01 18:59:57;;;;;;;10.05;3.88;;;;;;;;;;10421326;28;20045;-78
2023/06/01 19:05:02;;;;;;;6.03;3.55;;;;;;;;;;10410447;28;20519;-76
2023/06/01 19:10:39;;;;;;;8.23;3.72;;;;;;;;;;10429596;28;20072;-77
2023/06/01 19:15:49;;;;;;;8.43;3.72;;;;;;;;;;10416677;28;20101;-77
2023/06/01 19:21:14;;;;;;;10.48;4.07;;;;;;;;;;10422498;28;20344;-74
2023/06/01 19:26:34;;;;;;;10.40;4.22;;;;;;;;;;10420104;28;20050;-75
2023/06/01 19:31:42;;;;;;;7.93;3.78;;;;;;;;;;10406968;28;20056;-76
2023/06/01 19:36:52;;;;;;;9.30;4.22;;;;;;;;;;10423599;28;20045;-76
2023/06/01 19:42:06;;;;;;;9.93;4.75;;;;;;;;;;10397546;28;20053;-76
2023/06/01 19:47:33;;;;;;;8.73;3.95;;;;;;;;;;10417280;28;20045;-75
2023/06/01 19:52:42;;;;;;;9.80;4.32;;;;;;;;;;10416146;28;20062;-74
2023/06/01 19:58:11;;;;;;;11.73;4.13;;;;;;;;;;10423838;28;20033;-78
2023/06/01 20:03:42;;;;;;;9.52;3.92;;;;;;;;;;10419142;28;20125;-76
2023/06/01 20:08:52;;;;;;;8.40;3.60;;;;;;;;;;10397285;28;20041;-77
2023/06/01 20:13:58;;;;;;;8.60;3.95;;;;;;;;;;10404495;28;20050;-78
2023/06/01 20:19:04;;;;;;;8.93;3.95;;;;;;;;;;10400708;28;20152;-78
2023/06/01 20:24:13;;;;;;;7.03;3.83;;;;;;;;;;10419376;28;20057;-78
2023/06/01 20:29:22;;;;;;;9.00;3.60;;;;;;;;;;10414901;28;20057;-78
2023/06/01 20:34:42;;;;;;;;;;;;;;;;;;10418963;28;20065;-78
2023/06/01 20:39:51;;;;;;;6.55;3.58;;;;;;;;;;10395117;28;20384;-76
2023/06/01 20:56:18;;;;;;;7.00;3.83;;;;;;;;;;10414603;28;20095;-77
2023/06/01 21:01:28;;;;;;;8.18;3.65;;;;;;;;;;10415524;28;21751;-78
2023/06/01 21:06:39;;;;;;;10.35;4.55;;;;;;;;;;10378683;28;20648;-79
2023/06/01 21:11:57;;;;;;;7.40;3.97;;;;;;;;;;10400449;28;20042;-76
2023/06/01 21:17:05;;;;;;;9.32;4.20;;;;;;;;;;10414248;28;20569;-77
2023/06/01 21:22:12;;;;;;;8.88;4.22;;;;;;;;;;10418114;28;20350;-76
2023/06/01 21:27:27;;;;;;;7.10;3.97;;;;;;;;;;10412424;28;20064;-76
2023/06/01 21:32:34;;;;;;;7.90;3.42;;;;;;;;;;10412770;28;20045;-77
2023/06/01 21:37:39;;;;;;;8.95;4.00;;;;;;;;;;10408332;28;20059;-77
2023/06/01 21:43:00;;;;;;;10.43;4.40;;;;;;;;;;10394941;28;21242;-78
2023/06/01 21:48:09;;;;;;;10.57;4.10;;;;;;;;;;10408698;28;20052;-78
2023/06/01 21:53:24;;;;;;;10.40;4.22;;;;;;;;;;10408232;28;20058;-79
2023/06/01 21:59:09;;;;;;;8.23;4.35;;;;;;;;;;10402852;28;20053;-76
2023/06/01 22:04:33;;;;;;;11.98;4.72;;;;;;;;;;10391458;28;20026;-78
2023/06/01 22:09:39;;;;;;;9.52;4.18;;;;;;;;;;10415072;28;20480;-75
2023/06/01 22:14:46;;;;;;;8.27;4.60;;;;;;;;;;10409151;28;20121;-76
2023/06/01 22:19:54;;;;;;;10.13;4.80;;;;;;;;;;10399003;28;20037;-75
2023/06/01 22:25:02;;;;;;;11.38;4.90;;;;;;;;;;10411471;28;20037;-77
2023/06/01 22:30:09;;;;;;;13.30;4.97;;;;;;;;;;10411620;28;20050;-76
2023/06/01 22:35:22;;;;;;;9.75;4.40;;;;;;;;;;10399693;28;20282;-77
2023/06/01 22:40:31;;;;;;;11.35;4.75;;;;;;;;;;10411716;28;20034;-76
2023/06/01 22:45:44;;;;;;;12.85;4.65;;;;;;;;;;10409341;28;20398;-77
2023/06/01 22:50:52;;;;;;;10.68;4.25;;;;;;;;;;10402751;28;20096;-77
2023/06/01 22:55:58;;;;;;;9.52;4.63;;;;;;;;;;10414448;28;20144;-76
2023/06/01 23:01:05;;;;;;;12.48;4.93;;;;;;;;;;10387116;28;20058;-75
2023/06/01 23:06:13;;;;;;;12.73;5.30;;;;;;;;;;10390521;28;20096;-75
2023/06/01 23:11:27;;;;;;;10.00;4.30;;;;;;;;;;10381326;28;20034;-75
2023/06/01 23:16:35;;;;;;;11.18;5.00;;;;;;;;;;10394573;28;20580;-75
2023/06/01 23:21:43;;;;;;;9.88;4.53;;;;;;;;;;10392296;28;20038;-76
2023/06/01 23:26:52;;;;;;;8.88;4.68;;;;;;;;;;10394617;28;20101;-76
2023/06/01 23:32:05;;;;;;;9.65;5.07;;;;;;;;;;10416807;28;20038;-76
2023/06/01 23:37:13;;;;;;;16.35;5.47;;;;;;;;;;10424545;28;20088;-75
2023/06/01 23:42:19;;;;;;;7.75;4.07;;;;;;;;;;10398967;28;20052;-77
2023/06/01 23:47:26;;;;;;;9.60;4.75;;;;;;;;;;10395881;28;20049;-75
2023/06/01 23:52:38;;;;;;;8.20;4.25;;;;;;;;;;10419770;28;20062;-78
2023/06/01 23:57:43;;;;;;;9.82;4.25;;;;;;;;;;10423187;28;20045;-77
